Ginga Panther — 3EKQ6 — position and weather

sailwx.info

Track history (hours):
 
Tides and Currents Weather Stations Pressure Air Temp Water Temp Dewpoint Dewpoint Depression Visibility Wind Speed Wind Dir Waves Ship Positions

Ginga Panther

Last reported at 2018-Jan-07 20:25 UTC. Time now 2018-Feb-22 01:30 UTC.
Position N 01°17' E 103°21'.
Warning: this ship's position is 45 days out of date.

Length 159 m; draft 9.6 m.

Type: Tanker. MMSI: 372792000.

Date/timePositionNaut miles runAvg speedWind from/ knotsBaromVisibWave heightAir tempDewpointWater temp
2018-Jan-07 20:25N 01°17' E 103°21'512.4
2018-Jan-07 19:59N 01°14' E 103°26'612.2
2018-Jan-07 19:30N 01°13' E 103°32'5 9.8
2018-Jan-07 18:59N 01°12' E 103°36'3 7.2
2018-Jan-07 18:30N 01°13' E 103°40'1 1.5
2018-Jan-07 17:59N 01°13' E 103°39'0 0.0
2018-Jan-07 17:30N 01°13' E 103°39'0 0.0
2018-Jan-07 16:57N 01°13' E 103°39'0 0.0
2018-Jan-07 16:30N 01°13' E 103°39'0 0.0
2018-Jan-07 15:57N 01°13' E 103°39'0 0.0
2018-Jan-07 15:21N 01°13' E 103°39'0 0.0
2018-Jan-07 14:57N 01°13' E 103°39'0 0.1
2018-Jan-07 14:30N 01°13' E 103°39'0 0.1
2018-Jan-07 13:57N 01°13' E 103°39'0 0.0
2018-Jan-07 13:27N 01°13' E 103°39'0 0.0
2018-Jan-07 12:42N 01°13' E 103°39'0 0.0
2018-Jan-07 12:12N 01°13' E 103°39'0 0.1
2018-Jan-07 11:57N 01°13' E 103°39'0 0.3
2018-Jan-07 11:30N 01°13' E 103°39'0 0.1
2018-Jan-07 10:59N 01°13' E 103°39'0 0.3
2018-Jan-07 10:30N 01°13' E 103°39'2 3.5
2018-Jan-07 09:59N 01°12' E 103°40'3 5.4
2018-Jan-07 09:30N 01°10' E 103°42'4 8.1
2018-Jan-07 08:59N 01°09' E 103°46'510.4
2018-Jan-07 08:31N 01°12' E 103°51'610.6
2018-Jan-07 07:58N 01°14' E 103°56'611.0
2018-Jan-07 07:27N 01°16' E 104°01'511.2
2018-Jan-07 06:59N 01°16' E 104°06'  
2018-Jan-02 09:44N 22°36' E 119°47'513.3
2018-Jan-02 09:19N 22°41' E 119°49'1313.3
2018-Jan-02 08:21N 22°54' E 119°49'514.0
2018-Jan-02 08:00N 22°59' E 119°49'814.4
2018-Jan-02 07:26N 23°07' E 119°49'1115.2
2018-Jan-02 06:42N 23°18' E 119°48'315.1
2018-Jan-02 06:29N 23°21' E 119°48'715.5
2018-Jan-02 06:00N 23°29' E 119°48'816.2
2018-Jan-02 05:30N 23°37' E 119°48'  
Track history (hours):
 
Tides and Currents Weather Stations Pressure Air Temp Water Temp Dewpoint Dewpoint Depression Visibility Wind Speed Wind Dir Waves Ship Positions

Ginga Panther

Last reported at 2018-Jan-07 20:25 UTC. Time now 2018-Feb-22 01:30 UTC.
Position N 01°17' E 103°21'.
Warning: this ship's position is 45 days out of date.

Length 159 m; draft 9.6 m.

Type: Tanker. MMSI: 372792000.

Date/timePositionNaut miles runAvg speedWind from/ knotsBaromVisibWave heightAir tempDewpointWater temp
2018-Jan-07 20:25N 01°17' E 103°21'512.4
2018-Jan-07 19:59N 01°14' E 103°26'612.2
2018-Jan-07 19:30N 01°13' E 103°32'5 9.8
2018-Jan-07 18:59N 01°12' E 103°36'3 7.2
2018-Jan-07 18:30N 01°13' E 103°40'1 1.5
2018-Jan-07 17:59N 01°13' E 103°39'0 0.0
2018-Jan-07 17:30N 01°13' E 103°39'0 0.0
2018-Jan-07 16:57N 01°13' E 103°39'0 0.0
2018-Jan-07 16:30N 01°13' E 103°39'0 0.0
2018-Jan-07 15:57N 01°13' E 103°39'0 0.0
2018-Jan-07 15:21N 01°13' E 103°39'0 0.0
2018-Jan-07 14:57N 01°13' E 103°39'0 0.1
2018-Jan-07 14:30N 01°13' E 103°39'0 0.1
2018-Jan-07 13:57N 01°13' E 103°39'0 0.0
2018-Jan-07 13:27N 01°13' E 103°39'0 0.0
2018-Jan-07 12:42N 01°13' E 103°39'0 0.0
2018-Jan-07 12:12N 01°13' E 103°39'0 0.1
2018-Jan-07 11:57N 01°13' E 103°39'0 0.3
2018-Jan-07 11:30N 01°13' E 103°39'0 0.1
2018-Jan-07 10:59N 01°13' E 103°39'0 0.3
2018-Jan-07 10:30N 01°13' E 103°39'2 3.5
2018-Jan-07 09:59N 01°12' E 103°40'3 5.4
2018-Jan-07 09:30N 01°10' E 103°42'4 8.1
2018-Jan-07 08:59N 01°09' E 103°46'510.4
2018-Jan-07 08:31N 01°12' E 103°51'610.6
2018-Jan-07 07:58N 01°14' E 103°56'611.0
2018-Jan-07 07:27N 01°16' E 104°01'511.2
2018-Jan-07 06:59N 01°16' E 104°06'  
2018-Jan-02 09:44N 22°36' E 119°47'513.3
2018-Jan-02 09:19N 22°41' E 119°49'1313.3
2018-Jan-02 08:21N 22°54' E 119°49'514.0
2018-Jan-02 08:00N 22°59' E 119°49'814.4
2018-Jan-02 07:26N 23°07' E 119°49'1115.2
2018-Jan-02 06:42N 23°18' E 119°48'315.1
2018-Jan-02 06:29N 23°21' E 119°48'715.5
2018-Jan-02 06:00N 23°29' E 119°48'816.2
2018-Jan-02 05:30N 23°37' E 119°48'  

Dump ship's entire track history